sensor_id;sensor_type;location;lat;lon;timestamp;P1;durP1;ratioP1;P2;durP2;ratioP2
24517;SDS011;12678;51.336;12.406;2022-12-18T00:00:56;54.47;;;19.15;;
24517;SDS011;12678;51.336;12.406;2022-12-18T00:03:21;50.40;;;19.73;;
24517;SDS011;12678;51.336;12.406;2022-12-18T00:05:48;53.60;;;21.20;;
24517;SDS011;12678;51.336;12.406;2022-12-18T00:08:15;62.38;;;18.73;;
24517;SDS011;12678;51.336;12.406;2022-12-18T00:10:42;54.17;;;19.42;;
24517;SDS011;12678;51.336;12.406;2022-12-18T00:13:08;52.97;;;19.05;;
24517;SDS011;12678;51.336;12.406;2022-12-18T00:15:34;51.17;;;19.55;;
24517;SDS011;12678;51.336;12.406;2022-12-18T00:18:00;61.83;;;19.48;;
24517;SDS011;12678;51.336;12.406;2022-12-18T00:20:26;61.08;;;21.48;;
24517;SDS011;12678;51.336;12.406;2022-12-18T00:22:52;57.08;;;18.73;;
24517;SDS011;12678;51.336;12.406;2022-12-18T00:25:18;68.93;;;20.63;;
24517;SDS011;12678;51.336;12.406;2022-12-18T00:27:44;59.13;;;20.83;;
24517;SDS011;12678;51.336;12.406;2022-12-18T00:30:10;60.53;;;18.95;;
24517;SDS011;12678;51.336;12.406;2022-12-18T00:32:36;60.05;;;18.67;;
24517;SDS011;12678;51.336;12.406;2022-12-18T00:35:02;56.85;;;20.48;;
24517;SDS011;12678;51.336;12.406;2022-12-18T00:37:28;72.32;;;20.92;;
24517;SDS011;12678;51.336;12.406;2022-12-18T00:39:54;64.95;;;20.15;;
24517;SDS011;12678;51.336;12.406;2022-12-18T00:42:20;48.88;;;17.02;;
24517;SDS011;12678;51.336;12.406;2022-12-18T00:45:05;66.68;;;21.42;;
24517;SDS011;12678;51.336;12.406;2022-12-18T00:47:31;59.20;;;19.50;;
24517;SDS011;12678;51.336;12.406;2022-12-18T00:49:57;60.10;;;20.35;;
24517;SDS011;12678;51.336;12.406;2022-12-18T00:52:23;59.78;;;20.23;;
24517;SDS011;12678;51.336;12.406;2022-12-18T00:54:49;54.38;;;19.27;;
24517;SDS011;12678;51.336;12.406;2022-12-18T00:57:15;53.22;;;18.20;;
24517;SDS011;12678;51.336;12.406;2022-12-18T00:59:41;54.88;;;19.05;;
24517;SDS011;12678;51.336;12.406;2022-12-18T01:02:07;58.65;;;19.23;;
24517;SDS011;12678;51.336;12.406;2022-12-18T01:04:33;63.50;;;18.75;;
24517;SDS011;12678;51.336;12.406;2022-12-18T01:06:59;47.45;;;17.33;;
24517;SDS011;12678;51.336;12.406;2022-12-18T01:09:25;56.15;;;17.65;;
24517;SDS011;12678;51.336;12.406;2022-12-18T01:11:51;60.22;;;17.88;;
24517;SDS011;12678;51.336;12.406;2022-12-18T01:14:17;42.45;;;16.33;;
24517;SDS011;12678;51.336;12.406;2022-12-18T01:16:43;60.50;;;18.52;;
24517;SDS011;12678;51.336;12.406;2022-12-18T01:19:09;52.25;;;18.50;;
24517;SDS011;12678;51.336;12.406;2022-12-18T01:21:34;49.78;;;16.45;;
24517;SDS011;12678;51.336;12.406;2022-12-18T01:24:00;55.25;;;17.05;;
24517;SDS011;12678;51.336;12.406;2022-12-18T01:26:26;43.47;;;15.55;;
24517;SDS011;12678;51.336;12.406;2022-12-18T01:28:55;46.33;;;17.73;;
24517;SDS011;12678;51.336;12.406;2022-12-18T01:31:26;61.45;;;17.38;;
24517;SDS011;12678;51.336;12.406;2022-12-18T01:33:53;56.17;;;17.05;;
24517;SDS011;12678;51.336;12.406;2022-12-18T01:36:21;44.42;;;15.40;;
24517;SDS011;12678;51.336;12.406;2022-12-18T01:38:49;54.92;;;17.85;;
24517;SDS011;12678;51.336;12.406;2022-12-18T01:41:16;49.25;;;16.35;;
24517;SDS011;12678;51.336;12.406;2022-12-18T01:43:45;47.72;;;16.60;;
24517;SDS011;12678;51.336;12.406;2022-12-18T01:46:22;50.47;;;17.00;;
24517;SDS011;12678;51.336;12.406;2022-12-18T01:49:00;42.13;;;17.20;;
24517;SDS011;12678;51.336;12.406;2022-12-18T01:51:27;42.83;;;15.95;;
24517;SDS011;12678;51.336;12.406;2022-12-18T01:53:54;61.05;;;17.02;;
24517;SDS011;12678;51.336;12.406;2022-12-18T01:56:21;39.97;;;16.10;;
24517;SDS011;12678;51.336;12.406;2022-12-18T02:01:28;44.50;;;15.90;;
24517;SDS011;12678;51.336;12.406;2022-12-18T02:03:55;42.35;;;15.68;;
24517;SDS011;12678;51.336;12.406;2022-12-18T02:06:33;44.42;;;14.60;;
24517;SDS011;12678;51.336;12.406;2022-12-18T02:09:07;53.13;;;15.10;;
24517;SDS011;12678;51.336;12.406;2022-12-18T02:11:54;48.22;;;17.10;;
24517;SDS011;12678;51.336;12.406;2022-12-18T02:14:38;40.00;;;14.07;;
24517;SDS011;12678;51.336;12.406;2022-12-18T02:17:21;38.07;;;12.80;;
24517;SDS011;12678;51.336;12.406;2022-12-18T02:27:44;33.15;;;13.82;;
24517;SDS011;12678;51.336;12.406;2022-12-18T02:30:12;43.25;;;14.45;;
24517;SDS011;12678;51.336;12.406;2022-12-18T02:32:40;36.63;;;14.80;;
24517;SDS011;12678;51.336;12.406;2022-12-18T02:35:10;45.67;;;15.35;;
24517;SDS011;12678;51.336;12.406;2022-12-18T02:37:45;46.63;;;15.90;;
24517;SDS011;12678;51.336;12.406;2022-12-18T02:40:12;50.72;;;16.08;;
24517;SDS011;12678;51.336;12.406;2022-12-18T02:42:40;50.78;;;16.00;;
24517;SDS011;12678;51.336;12.406;2022-12-18T02:45:06;45.20;;;15.63;;
24517;SDS011;12678;51.336;12.406;2022-12-18T02:47:33;40.22;;;14.75;;
24517;SDS011;12678;51.336;12.406;2022-12-18T02:58:18;32.28;;;12.75;;
24517;SDS011;12678;51.336;12.406;2022-12-18T03:03:42;58.50;;;14.10;;
24517;SDS011;12678;51.336;12.406;2022-12-18T03:06:14;35.08;;;12.85;;
24517;SDS011;12678;51.336;12.406;2022-12-18T03:08:50;38.95;;;14.50;;
24517;SDS011;12678;51.336;12.406;2022-12-18T03:11:26;35.10;;;12.35;;
24517;SDS011;12678;51.336;12.406;2022-12-18T03:14:15;39.38;;;13.57;;
24517;SDS011;12678;51.336;12.406;2022-12-18T03:16:42;34.83;;;12.15;;
24517;SDS011;12678;51.336;12.406;2022-12-18T03:19:11;34.10;;;13.20;;
24517;SDS011;12678;51.336;12.406;2022-12-18T03:21:45;39.95;;;13.23;;
24517;SDS011;12678;51.336;12.406;2022-12-18T03:24:14;37.83;;;13.45;;
24517;SDS011;12678;51.336;12.406;2022-12-18T03:26:43;38.83;;;13.18;;
24517;SDS011;12678;51.336;12.406;2022-12-18T03:29:12;38.85;;;14.02;;
24517;SDS011;12678;51.336;12.406;2022-12-18T03:31:51;33.97;;;13.00;;
24517;SDS011;12678;51.336;12.406;2022-12-18T03:34:29;41.00;;;12.00;;
24517;SDS011;12678;51.336;12.406;2022-12-18T03:36:56;34.33;;;12.43;;
24517;SDS011;12678;51.336;12.406;2022-12-18T03:39:22;34.13;;;13.07;;
24517;SDS011;12678;51.336;12.406;2022-12-18T03:41:54;34.15;;;13.38;;
24517;SDS011;12678;51.336;12.406;2022-12-18T03:44:28;34.13;;;13.68;;
24517;SDS011;12678;51.336;12.406;2022-12-18T03:47:22;47.30;;;13.43;;
24517;SDS011;12678;51.336;12.406;2022-12-18T03:49:57;33.92;;;11.73;;
24517;SDS011;12678;51.336;12.406;2022-12-18T03:52:37;32.70;;;12.45;;
24517;SDS011;12678;51.336;12.406;2022-12-18T03:55:11;33.45;;;12.27;;
24517;SDS011;12678;51.336;12.406;2022-12-18T03:57:37;32.70;;;11.38;;
24517;SDS011;12678;51.336;12.406;2022-12-18T04:00:05;33.20;;;11.00;;
24517;SDS011;12678;51.336;12.406;2022-12-18T04:05:04;26.70;;;10.43;;
24517;SDS011;12678;51.336;12.406;2022-12-18T04:07:32;32.95;;;10.55;;
24517;SDS011;12678;51.336;12.406;2022-12-18T04:09:58;30.20;;;11.50;;
24517;SDS011;12678;51.336;12.406;2022-12-18T04:12:28;25.88;;;10.75;;
24517;SDS011;12678;51.336;12.406;2022-12-18T04:14:54;36.40;;;10.70;;
24517;SDS011;12678;51.336;12.406;2022-12-18T04:17:20;33.70;;;11.05;;
24517;SDS011;12678;51.336;12.406;2022-12-18T04:19:46;29.73;;;11.23;;
24517;SDS011;12678;51.336;12.406;2022-12-18T04:22:11;23.15;;;9.95;;
24517;SDS011;12678;51.336;12.406;2022-12-18T04:24:37;32.05;;;10.57;;
24517;SDS011;12678;51.336;12.406;2022-12-18T04:27:03;31.55;;;12.60;;
24517;SDS011;12678;51.336;12.406;2022-12-18T04:29:30;23.40;;;10.05;;
24517;SDS011;12678;51.336;12.406;2022-12-18T04:31:55;30.67;;;9.88;;
24517;SDS011;12678;51.336;12.406;2022-12-18T04:34:21;36.13;;;11.18;;
24517;SDS011;12678;51.336;12.406;2022-12-18T04:36:47;42.88;;;10.07;;
24517;SDS011;12678;51.336;12.406;2022-12-18T04:39:13;34.78;;;10.48;;
24517;SDS011;12678;51.336;12.406;2022-12-18T04:41:39;28.35;;;10.32;;
24517;SDS011;12678;51.336;12.406;2022-12-18T04:44:05;36.97;;;11.77;;
24517;SDS011;12678;51.336;12.406;2022-12-18T04:46:31;29.15;;;9.88;;
24517;SDS011;12678;51.336;12.406;2022-12-18T04:48:56;22.15;;;9.88;;
24517;SDS011;12678;51.336;12.406;2022-12-18T04:51:22;22.80;;;10.77;;
24517;SDS011;12678;51.336;12.406;2022-12-18T04:53:47;28.52;;;10.20;;
24517;SDS011;12678;51.336;12.406;2022-12-18T04:56:13;28.55;;;9.43;;
24517;SDS011;12678;51.336;12.406;2022-12-18T04:58:40;28.70;;;10.38;;
24517;SDS011;12678;51.336;12.406;2022-12-18T05:01:07;27.48;;;9.18;;
24517;SDS011;12678;51.336;12.406;2022-12-18T05:03:33;18.25;;;8.90;;
24517;SDS011;12678;51.336;12.406;2022-12-18T05:05:59;26.75;;;10.07;;
24517;SDS011;12678;51.336;12.406;2022-12-18T05:08:25;25.80;;;9.05;;
24517;SDS011;12678;51.336;12.406;2022-12-18T05:11:02;22.77;;;8.90;;
24517;SDS011;12678;51.336;12.406;2022-12-18T05:13:29;19.02;;;8.20;;
24517;SDS011;12678;51.336;12.406;2022-12-18T05:15:55;28.73;;;9.73;;
24517;SDS011;12678;51.336;12.406;2022-12-18T05:18:21;21.00;;;9.40;;
24517;SDS011;12678;51.336;12.406;2022-12-18T05:20:49;28.40;;;10.07;;
24517;SDS011;12678;51.336;12.406;2022-12-18T05:23:15;25.27;;;9.32;;
24517;SDS011;12678;51.336;12.406;2022-12-18T05:25:41;17.55;;;8.30;;
24517;SDS011;12678;51.336;12.406;2022-12-18T05:28:07;19.42;;;8.98;;
24517;SDS011;12678;51.336;12.406;2022-12-18T05:30:32;29.48;;;10.45;;
24517;SDS011;12678;51.336;12.406;2022-12-18T05:32:58;27.40;;;8.75;;
24517;SDS011;12678;51.336;12.406;2022-12-18T05:35:24;27.25;;;8.75;;
24517;SDS011;12678;51.336;12.406;2022-12-18T05:37:49;30.45;;;9.73;;
24517;SDS011;12678;51.336;12.406;2022-12-18T05:40:15;26.92;;;9.10;;
24517;SDS011;12678;51.336;12.406;2022-12-18T05:42:41;25.98;;;8.23;;
24517;SDS011;12678;51.336;12.406;2022-12-18T05:45:06;26.23;;;8.30;;
24517;SDS011;12678;51.336;12.406;2022-12-18T05:47:34;18.65;;;8.40;;
24517;SDS011;12678;51.336;12.406;2022-12-18T05:49:59;26.42;;;8.85;;
24517;SDS011;12678;51.336;12.406;2022-12-18T05:52:25;26.60;;;7.65;;
24517;SDS011;12678;51.336;12.406;2022-12-18T05:54:50;22.95;;;8.77;;
24517;SDS011;12678;51.336;12.406;2022-12-18T05:57:16;21.15;;;9.05;;
24517;SDS011;12678;51.336;12.406;2022-12-18T05:59:42;15.63;;;8.85;;
24517;SDS011;12678;51.336;12.406;2022-12-18T06:02:08;17.70;;;7.85;;
24517;SDS011;12678;51.336;12.406;2022-12-18T06:04:33;17.52;;;7.78;;
24517;SDS011;12678;51.336;12.406;2022-12-18T06:06:59;20.13;;;8.52;;
24517;SDS011;12678;51.336;12.406;2022-12-18T06:09:25;27.30;;;9.43;;
24517;SDS011;12678;51.336;12.406;2022-12-18T06:11:51;24.75;;;8.45;;
24517;SDS011;12678;51.336;12.406;2022-12-18T06:14:17;18.60;;;8.40;;
24517;SDS011;12678;51.336;12.406;2022-12-18T06:16:43;23.02;;;8.95;;
24517;SDS011;12678;51.336;12.406;2022-12-18T06:19:13;18.75;;;8.90;;
24517;SDS011;12678;51.336;12.406;2022-12-18T06:21:40;29.83;;;10.00;;
24517;SDS011;12678;51.336;12.406;2022-12-18T06:24:06;23.33;;;10.02;;
24517;SDS011;12678;51.336;12.406;2022-12-18T06:26:32;22.50;;;8.93;;
24517;SDS011;12678;51.336;12.406;2022-12-18T06:28:58;23.58;;;8.75;;
24517;SDS011;12678;51.336;12.406;2022-12-18T06:31:25;27.13;;;8.73;;
24517;SDS011;12678;51.336;12.406;2022-12-18T06:33:51;27.00;;;9.95;;
24517;SDS011;12678;51.336;12.406;2022-12-18T06:36:17;28.58;;;9.70;;
24517;SDS011;12678;51.336;12.406;2022-12-18T06:38:43;24.27;;;9.05;;
24517;SDS011;12678;51.336;12.406;2022-12-18T06:41:10;22.92;;;9.55;;
24517;SDS011;12678;51.336;12.406;2022-12-18T06:43:37;25.52;;;9.38;;
24517;SDS011;12678;51.336;12.406;2022-12-18T06:46:03;18.95;;;8.75;;
24517;SDS011;12678;51.336;12.406;2022-12-18T06:48:29;17.70;;;7.97;;
24517;SDS011;12678;51.336;12.406;2022-12-18T06:50:55;27.98;;;9.38;;
24517;SDS011;12678;51.336;12.406;2022-12-18T06:53:21;27.20;;;9.80;;
24517;SDS011;12678;51.336;12.406;2022-12-18T06:55:47;17.98;;;8.05;;
24517;SDS011;12678;51.336;12.406;2022-12-18T06:58:13;19.25;;;9.57;;
24517;SDS011;12678;51.336;12.406;2022-12-18T07:00:39;24.13;;;8.82;;
24517;SDS011;12678;51.336;12.406;2022-12-18T07:03:05;24.25;;;9.18;;
24517;SDS011;12678;51.336;12.406;2022-12-18T07:05:31;19.98;;;8.13;;
24517;SDS011;12678;51.336;12.406;2022-12-18T07:07:57;22.48;;;9.43;;
24517;SDS011;12678;51.336;12.406;2022-12-18T07:10:23;25.20;;;8.63;;
24517;SDS011;12678;51.336;12.406;2022-12-18T07:12:49;30.75;;;10.43;;
24517;SDS011;12678;51.336;12.406;2022-12-18T07:15:15;19.65;;;9.40;;
24517;SDS011;12678;51.336;12.406;2022-12-18T07:17:40;28.67;;;9.77;;
24517;SDS011;12678;51.336;12.406;2022-12-18T07:20:06;26.55;;;10.57;;
24517;SDS011;12678;51.336;12.406;2022-12-18T07:22:33;33.55;;;11.38;;
24517;SDS011;12678;51.336;12.406;2022-12-18T07:25:01;25.15;;;9.63;;
24517;SDS011;12678;51.336;12.406;2022-12-18T07:27:27;23.50;;;9.55;;
24517;SDS011;12678;51.336;12.406;2022-12-18T07:29:52;32.92;;;9.52;;
24517;SDS011;12678;51.336;12.406;2022-12-18T07:32:18;24.98;;;9.77;;
24517;SDS011;12678;51.336;12.406;2022-12-18T07:34:44;30.75;;;10.77;;
24517;SDS011;12678;51.336;12.406;2022-12-18T07:37:09;25.45;;;11.50;;
24517;SDS011;12678;51.336;12.406;2022-12-18T07:39:35;28.45;;;9.20;;
24517;SDS011;12678;51.336;12.406;2022-12-18T07:42:01;23.60;;;9.35;;
24517;SDS011;12678;51.336;12.406;2022-12-18T07:44:45;29.95;;;11.10;;
24517;SDS011;12678;51.336;12.406;2022-12-18T07:47:11;21.23;;;9.35;;
24517;SDS011;12678;51.336;12.406;2022-12-18T07:49:37;28.98;;;9.90;;
24517;SDS011;12678;51.336;12.406;2022-12-18T07:52:02;21.92;;;9.13;;
24517;SDS011;12678;51.336;12.406;2022-12-18T07:54:28;27.00;;;8.40;;
24517;SDS011;12678;51.336;12.406;2022-12-18T07:56:54;29.50;;;10.05;;
24517;SDS011;12678;51.336;12.406;2022-12-18T07:59:20;25.05;;;9.00;;
24517;SDS011;12678;51.336;12.406;2022-12-18T08:01:46;32.50;;;10.18;;
24517;SDS011;12678;51.336;12.406;2022-12-18T08:04:11;26.92;;;9.27;;
24517;SDS011;12678;51.336;12.406;2022-12-18T08:06:37;16.88;;;8.18;;
24517;SDS011;12678;51.336;12.406;2022-12-18T08:09:03;26.83;;;10.13;;
24517;SDS011;12678;51.336;12.406;2022-12-18T08:11:28;17.10;;;7.78;;
24517;SDS011;12678;51.336;12.406;2022-12-18T08:13:54;21.25;;;8.88;;
24517;SDS011;12678;51.336;12.406;2022-12-18T08:16:21;25.77;;;9.00;;
24517;SDS011;12678;51.336;12.406;2022-12-18T08:18:48;23.20;;;9.70;;
24517;SDS011;12678;51.336;12.406;2022-12-18T08:21:14;29.58;;;9.68;;
24517;SDS011;12678;51.336;12.406;2022-12-18T08:23:42;19.48;;;9.25;;
24517;SDS011;12678;51.336;12.406;2022-12-18T08:26:08;26.50;;;8.95;;
24517;SDS011;12678;51.336;12.406;2022-12-18T08:28:34;27.20;;;10.10;;
24517;SDS011;12678;51.336;12.406;2022-12-18T08:31:00;24.55;;;8.65;;
24517;SDS011;12678;51.336;12.406;2022-12-18T08:33:26;31.55;;;9.63;;
24517;SDS011;12678;51.336;12.406;2022-12-18T08:35:52;21.60;;;9.88;;
24517;SDS011;12678;51.336;12.406;2022-12-18T08:38:18;29.20;;;9.48;;
24517;SDS011;12678;51.336;12.406;2022-12-18T08:40:43;25.85;;;9.52;;
24517;SDS011;12678;51.336;12.406;2022-12-18T08:43:09;22.70;;;8.65;;
24517;SDS011;12678;51.336;12.406;2022-12-18T08:45:53;17.50;;;8.20;;
24517;SDS011;12678;51.336;12.406;2022-12-18T08:48:19;25.55;;;9.43;;
24517;SDS011;12678;51.336;12.406;2022-12-18T08:50:58;18.88;;;8.23;;
24517;SDS011;12678;51.336;12.406;2022-12-18T08:53:24;18.92;;;8.48;;
24517;SDS011;12678;51.336;12.406;2022-12-18T08:55:50;17.13;;;8.85;;
24517;SDS011;12678;51.336;12.406;2022-12-18T08:58:16;28.48;;;9.48;;
24517;SDS011;12678;51.336;12.406;2022-12-18T09:00:42;24.27;;;9.55;;
24517;SDS011;12678;51.336;12.406;2022-12-18T09:03:12;19.20;;;8.80;;
24517;SDS011;12678;51.336;12.406;2022-12-18T09:05:39;19.98;;;7.53;;
24517;SDS011;12678;51.336;12.406;2022-12-18T09:08:04;22.67;;;8.88;;
24517;SDS011;12678;51.336;12.406;2022-12-18T09:10:30;29.48;;;8.93;;
24517;SDS011;12678;51.336;12.406;2022-12-18T09:12:57;23.90;;;8.48;;
24517;SDS011;12678;51.336;12.406;2022-12-18T09:15:22;26.08;;;7.78;;
24517;SDS011;12678;51.336;12.406;2022-12-18T09:17:48;20.40;;;9.10;;
24517;SDS011;12678;51.336;12.406;2022-12-18T09:20:15;23.58;;;9.20;;
24517;SDS011;12678;51.336;12.406;2022-12-18T09:22:41;22.33;;;8.93;;
24517;SDS011;12678;51.336;12.406;2022-12-18T09:25:07;19.65;;;10.00;;
24517;SDS011;12678;51.336;12.406;2022-12-18T09:27:33;27.40;;;9.45;;
24517;SDS011;12678;51.336;12.406;2022-12-18T09:29:59;23.50;;;9.45;;
24517;SDS011;12678;51.336;12.406;2022-12-18T09:32:25;27.20;;;8.68;;
24517;SDS011;12678;51.336;12.406;2022-12-18T09:34:51;21.17;;;9.80;;
24517;SDS011;12678;51.336;12.406;2022-12-18T09:37:16;22.58;;;9.80;;
24517;SDS011;12678;51.336;12.406;2022-12-18T09:39:42;25.77;;;9.70;;
24517;SDS011;12678;51.336;12.406;2022-12-18T09:42:12;19.25;;;8.88;;
24517;SDS011;12678;51.336;12.406;2022-12-18T09:44:51;21.63;;;8.10;;
24517;SDS011;12678;51.336;12.406;2022-12-18T09:47:23;21.15;;;8.60;;
24517;SDS011;12678;51.336;12.406;2022-12-18T09:50:52;23.10;;;8.73;;
24517;SDS011;12678;51.336;12.406;2022-12-18T09:53:24;27.35;;;9.00;;
24517;SDS011;12678;51.336;12.406;2022-12-18T09:55:49;25.30;;;8.70;;
24517;SDS011;12678;51.336;12.406;2022-12-18T10:01:18;21.20;;;7.88;;
24517;SDS011;12678;51.336;12.406;2022-12-18T10:03:47;26.52;;;9.38;;
24517;SDS011;12678;51.336;12.406;2022-12-18T10:06:15;17.23;;;8.05;;
24517;SDS011;12678;51.336;12.406;2022-12-18T10:08:55;17.85;;;8.20;;
24517;SDS011;12678;51.336;12.406;2022-12-18T10:16:53;23.55;;;8.50;;
24517;SDS011;12678;51.336;12.406;2022-12-18T10:27:25;14.25;;;6.43;;
24517;SDS011;12678;51.336;12.406;2022-12-18T10:29:52;20.10;;;8.48;;
24517;SDS011;12678;51.336;12.406;2022-12-18T10:32:20;18.50;;;7.28;;
24517;SDS011;12678;51.336;12.406;2022-12-18T10:34:48;20.45;;;6.90;;
24517;SDS011;12678;51.336;12.406;2022-12-18T10:37:20;17.77;;;7.57;;
24517;SDS011;12678;51.336;12.406;2022-12-18T10:42:36;19.67;;;7.80;;
24517;SDS011;12678;51.336;12.406;2022-12-18T10:45:08;14.13;;;6.57;;
24517;SDS011;12678;51.336;12.406;2022-12-18T10:47:48;17.20;;;7.78;;
24517;SDS011;12678;51.336;12.406;2022-12-18T10:50:34;17.17;;;7.95;;
24517;SDS011;12678;51.336;12.406;2022-12-18T10:53:03;24.73;;;8.38;;
24517;SDS011;12678;51.336;12.406;2022-12-18T10:55:31;12.75;;;6.57;;
24517;SDS011;12678;51.336;12.406;2022-12-18T11:01:01;18.50;;;7.07;;
24517;SDS011;12678;51.336;12.406;2022-12-18T11:03:38;15.90;;;7.57;;
24517;SDS011;12678;51.336;12.406;2022-12-18T11:06:13;23.70;;;7.78;;
24517;SDS011;12678;51.336;12.406;2022-12-18T11:08:58;17.08;;;6.55;;
24517;SDS011;12678;51.336;12.406;2022-12-18T11:11:47;16.30;;;7.10;;
24517;SDS011;12678;51.336;12.406;2022-12-18T11:16:48;12.45;;;6.40;;
24517;SDS011;12678;51.336;12.406;2022-12-18T11:19:34;19.23;;;8.88;;
24517;SDS011;12678;51.336;12.406;2022-12-18T11:22:42;14.85;;;6.45;;
24517;SDS011;12678;51.336;12.406;2022-12-18T11:25:07;23.25;;;7.40;;
24517;SDS011;12678;51.336;12.406;2022-12-18T11:27:54;16.75;;;6.85;;
24517;SDS011;12678;51.336;12.406;2022-12-18T11:35:37;14.50;;;7.43;;
24517;SDS011;12678;51.336;12.406;2022-12-18T11:38:19;17.52;;;8.52;;
24517;SDS011;12678;51.336;12.406;2022-12-18T11:43:28;11.83;;;5.33;;
24517;SDS011;12678;51.336;12.406;2022-12-18T11:46:02;20.75;;;8.32;;
24517;SDS011;12678;51.336;12.406;2022-12-18T11:48:48;20.60;;;7.97;;
24517;SDS011;12678;51.336;12.406;2022-12-18T11:53:51;13.25;;;6.25;;
24517;SDS011;12678;51.336;12.406;2022-12-18T11:56:31;16.73;;;6.80;;
24517;SDS011;12678;51.336;12.406;2022-12-18T12:05:00;23.83;;;8.18;;
24517;SDS011;12678;51.336;12.406;2022-12-18T12:08:26;15.57;;;6.95;;
24517;SDS011;12678;51.336;12.406;2022-12-18T12:10:38;22.58;;;6.72;;
24517;SDS011;12678;51.336;12.406;2022-12-18T12:18:35;14.05;;;6.57;;
24517;SDS011;12678;51.336;12.406;2022-12-18T12:21:16;15.10;;;6.47;;
24517;SDS011;12678;51.336;12.406;2022-12-18T12:28:57;19.58;;;7.40;;
24517;SDS011;12678;51.336;12.406;2022-12-18T12:31:52;14.43;;;6.68;;
24517;SDS011;12678;51.336;12.406;2022-12-18T12:34:25;15.32;;;6.65;;
24517;SDS011;12678;51.336;12.406;2022-12-18T12:39:44;23.40;;;7.32;;
24517;SDS011;12678;51.336;12.406;2022-12-18T12:45:40;13.30;;;6.32;;
24517;SDS011;12678;51.336;12.406;2022-12-18T12:48:16;25.98;;;6.53;;
24517;SDS011;12678;51.336;12.406;2022-12-18T12:50:50;18.40;;;6.10;;
24517;SDS011;12678;51.336;12.406;2022-12-18T12:53:21;17.27;;;6.95;;
24517;SDS011;12678;51.336;12.406;2022-12-18T12:55:56;13.73;;;6.22;;
24517;SDS011;12678;51.336;12.406;2022-12-18T13:01:17;16.60;;;7.05;;
24517;SDS011;12678;51.336;12.406;2022-12-18T13:03:56;21.65;;;7.57;;
24517;SDS011;12678;51.336;12.406;2022-12-18T13:09:29;22.50;;;6.97;;
24517;SDS011;12678;51.336;12.406;2022-12-18T13:12:01;13.48;;;6.55;;
24517;SDS011;12678;51.336;12.406;2022-12-18T13:14:54;13.35;;;6.85;;
24517;SDS011;12678;51.336;12.406;2022-12-18T13:17:46;22.70;;;7.93;;
24517;SDS011;12678;51.336;12.406;2022-12-18T13:20:13;20.55;;;7.28;;
24517;SDS011;12678;51.336;12.406;2022-12-18T13:22:47;17.83;;;6.93;;
24517;SDS011;12678;51.336;12.406;2022-12-18T13:25:34;20.65;;;6.93;;
24517;SDS011;12678;51.336;12.406;2022-12-18T13:28:03;18.55;;;7.25;;
24517;SDS011;12678;51.336;12.406;2022-12-18T13:30:55;15.45;;;7.43;;
24517;SDS011;12678;51.336;12.406;2022-12-18T13:36:03;29.80;;;9.45;;
24517;SDS011;12678;51.336;12.406;2022-12-18T13:38:42;21.55;;;8.45;;
24517;SDS011;12678;51.336;12.406;2022-12-18T13:46:21;22.17;;;8.80;;
24517;SDS011;12678;51.336;12.406;2022-12-18T13:51:44;21.55;;;7.88;;
24517;SDS011;12678;51.336;12.406;2022-12-18T13:54:19;19.98;;;7.47;;
24517;SDS011;12678;51.336;12.406;2022-12-18T13:56:49;20.20;;;7.93;;
24517;SDS011;12678;51.336;12.406;2022-12-18T13:59:16;16.38;;;7.55;;
24517;SDS011;12678;51.336;12.406;2022-12-18T14:01:46;27.70;;;8.32;;
24517;SDS011;12678;51.336;12.406;2022-12-18T14:04:17;19.80;;;7.53;;
24517;SDS011;12678;51.336;12.406;2022-12-18T14:06:45;24.13;;;8.55;;
24517;SDS011;12678;51.336;12.406;2022-12-18T14:09:18;29.13;;;9.57;;
24517;SDS011;12678;51.336;12.406;2022-12-18T14:11:50;19.52;;;8.25;;
24517;SDS011;12678;51.336;12.406;2022-12-18T14:14:18;24.13;;;9.13;;
24517;SDS011;12678;51.336;12.406;2022-12-18T14:16:45;32.53;;;9.85;;
24517;SDS011;12678;51.336;12.406;2022-12-18T14:19:14;19.23;;;8.93;;
24517;SDS011;12678;51.336;12.406;2022-12-18T14:21:48;22.35;;;8.38;;
24517;SDS011;12678;51.336;12.406;2022-12-18T14:24:20;24.48;;;10.32;;
24517;SDS011;12678;51.336;12.406;2022-12-18T14:26:48;25.38;;;11.07;;
24517;SDS011;12678;51.336;12.406;2022-12-18T14:29:23;25.02;;;10.07;;
24517;SDS011;12678;51.336;12.406;2022-12-18T14:34:52;32.95;;;9.90;;
24517;SDS011;12678;51.336;12.406;2022-12-18T14:37:25;24.20;;;10.50;;
24517;SDS011;12678;51.336;12.406;2022-12-18T14:39:56;26.65;;;10.73;;
24517;SDS011;12678;51.336;12.406;2022-12-18T14:42:22;33.15;;;12.02;;
24517;SDS011;12678;51.336;12.406;2022-12-18T14:45:17;28.95;;;10.68;;
24517;SDS011;12678;51.336;12.406;2022-12-18T14:47:57;31.08;;;11.57;;
24517;SDS011;12678;51.336;12.406;2022-12-18T14:50:23;33.60;;;10.43;;
24517;SDS011;12678;51.336;12.406;2022-12-18T14:52:49;27.35;;;10.40;;
24517;SDS011;12678;51.336;12.406;2022-12-18T14:55:18;28.98;;;10.45;;
24517;SDS011;12678;51.336;12.406;2022-12-18T14:57:45;30.17;;;11.45;;
24517;SDS011;12678;51.336;12.406;2022-12-18T15:00:18;26.23;;;9.25;;
24517;SDS011;12678;51.336;12.406;2022-12-18T15:02:46;26.60;;;10.38;;
24517;SDS011;12678;51.336;12.406;2022-12-18T15:05:19;31.38;;;10.95;;
24517;SDS011;12678;51.336;12.406;2022-12-18T15:07:56;26.70;;;11.23;;
24517;SDS011;12678;51.336;12.406;2022-12-18T15:10:25;25.77;;;10.27;;
24517;SDS011;12678;51.336;12.406;2022-12-18T15:23:16;42.42;;;11.77;;
24517;SDS011;12678;51.336;12.406;2022-12-18T15:26:05;30.50;;;11.68;;
24517;SDS011;12678;51.336;12.406;2022-12-18T15:28:54;21.42;;;9.23;;
24517;SDS011;12678;51.336;12.406;2022-12-18T15:31:30;30.45;;;10.25;;
24517;SDS011;12678;51.336;12.406;2022-12-18T15:34:01;32.22;;;11.25;;
24517;SDS011;12678;51.336;12.406;2022-12-18T15:36:37;36.95;;;12.43;;
24517;SDS011;12678;51.336;12.406;2022-12-18T15:39:03;37.10;;;13.95;;
24517;SDS011;12678;51.336;12.406;2022-12-18T15:41:31;29.42;;;11.98;;
24517;SDS011;12678;51.336;12.406;2022-12-18T15:44:01;38.15;;;14.15;;
24517;SDS011;12678;51.336;12.406;2022-12-18T15:46:28;31.60;;;12.00;;
24517;SDS011;12678;51.336;12.406;2022-12-18T15:48:56;26.33;;;11.25;;
24517;SDS011;12678;51.336;12.406;2022-12-18T15:51:23;46.45;;;14.98;;
24517;SDS011;12678;51.336;12.406;2022-12-18T15:53:59;42.20;;;15.25;;
24517;SDS011;12678;51.336;12.406;2022-12-18T15:56:30;29.73;;;12.60;;
24517;SDS011;12678;51.336;12.406;2022-12-18T15:59:15;30.33;;;11.23;;
24517;SDS011;12678;51.336;12.406;2022-12-18T16:01:43;36.08;;;13.40;;
24517;SDS011;12678;51.336;12.406;2022-12-18T16:04:11;27.17;;;12.18;;
24517;SDS011;12678;51.336;12.406;2022-12-18T16:06:39;24.92;;;10.95;;
24517;SDS011;12678;51.336;12.406;2022-12-18T16:09:05;42.60;;;14.07;;
24517;SDS011;12678;51.336;12.406;2022-12-18T16:11:32;35.72;;;11.90;;
24517;SDS011;12678;51.336;12.406;2022-12-18T16:14:15;33.78;;;11.52;;
24517;SDS011;12678;51.336;12.406;2022-12-18T16:16:52;31.77;;;12.18;;
24517;SDS011;12678;51.336;12.406;2022-12-18T16:19:22;30.63;;;10.35;;
24517;SDS011;12678;51.336;12.406;2022-12-18T16:21:48;37.03;;;12.18;;
24517;SDS011;12678;51.336;12.406;2022-12-18T16:24:16;36.50;;;13.88;;